Time;durP1;ratioP1;P1;durP2;ratioP2;P2;SDS_P1;SDS_P2;PMS_P1;PMS_P2;Temp;Humidity;BMP_temperature;BMP_pressure;BME280_temperature;BME280_humidity;BME280_pressure;Samples;Min_cycle;Max_cycle;Signal;HPM_P1;HPM_P2
2023/10/19 00:01:11;;;;;;;27.65;21.08;;;11.30;99.90;;;;;;5037011;28;20656;-85
2023/10/19 00:03:37;;;;;;;35.73;24.40;;;11.20;99.90;;;;;;5021069;28;20212;-86
2023/10/19 00:06:05;;;;;;;29.23;20.00;;;11.20;99.90;;;;;;5008870;28;20464;-86
2023/10/19 00:08:41;;;;;;;28.98;21.70;;;11.20;99.90;;;;;;5001054;28;20217;-86
2023/10/19 00:11:21;;;;;;;31.30;21.07;;;11.20;99.90;;;;;;5017474;28;20213;-87
2023/10/19 00:13:49;;;;;;;26.40;20.02;;;11.20;99.90;;;;;;5017437;28;20420;-86
2023/10/19 00:16:22;;;;;;;30.13;20.30;;;11.30;99.90;;;;;;5034587;28;20646;-86
2023/10/19 00:18:48;;;;;;;26.10;19.83;;;11.40;99.90;;;;;;5017019;28;20476;-86
2023/10/19 00:21:21;;;;;;;23.33;16.90;;;11.40;99.90;;;;;;5050088;28;20412;-86
2023/10/19 00:23:48;;;;;;;22.43;17.90;;;11.50;99.90;;;;;;5054695;28;20407;-85
2023/10/19 00:26:19;;;;;;;24.90;17.80;;;11.50;99.90;;;;;;5054582;28;20508;-83
2023/10/19 00:28:46;;;;;;;22.33;16.60;;;11.60;99.90;;;;;;5022386;28;20498;-86
2023/10/19 00:31:13;;;;;;;26.10;19.03;;;11.70;99.90;;;;;;5021609;28;20195;-85
2023/10/19 00:33:39;;;;;;;27.50;18.40;;;11.70;99.90;;;;;;5021373;28;20416;-85
2023/10/19 00:36:09;;;;;;;30.30;18.43;;;11.70;99.90;;;;;;5037417;28;20209;-85
2023/10/19 00:43:43;;;;;;;26.35;18.77;;;11.70;99.90;;;;;;5054493;28;20411;-86
2023/10/19 00:48:53;;;;;;;20.80;16.50;;;11.70;99.90;;;;;;5038728;28;20420;-84
2023/10/19 00:54:16;;;;;;;22.47;15.50;;;11.70;99.90;;;;;;5054763;28;20243;-85
2023/10/19 00:56:48;;;;;;;22.20;17.20;;;11.80;99.90;;;;;;5037084;28;20415;-85
2023/10/19 00:59:30;;;;;;;21.30;16.05;;;11.80;99.90;;;;;;5051802;28;20466;-83
2023/10/19 01:04:42;;;;;;;22.40;16.37;;;11.90;99.90;;;;;;5029595;28;20491;-84
2023/10/19 01:07:21;;;;;;;24.05;17.50;;;11.90;99.90;;;;;;5037083;28;20443;-83
2023/10/19 01:09:48;;;;;;;24.35;15.93;;;11.90;99.90;;;;;;5054433;28;20185;-83
2023/10/19 01:12:25;;;;;;;28.27;18.30;;;11.90;99.90;;;;;;5054128;28;20169;-84
2023/10/19 01:17:57;;;;;;;23.07;17.10;;;11.90;99.90;;;;;;5054431;28;20173;-86
2023/10/19 01:25:41;;;;;;;26.23;16.67;;;12.00;99.90;;;;;;5053709;28;20415;-84
2023/10/19 01:28:09;;;;;;;25.47;17.10;;;12.00;99.90;;;;;;5036163;28;20455;-84
2023/10/19 01:30:36;;;;;;;22.57;15.53;;;12.10;99.90;;;;;;5054737;28;20415;-84
2023/10/19 01:33:03;;;;;;;20.43;14.90;;;12.10;99.90;;;;;;5040078;28;20419;-84
2023/10/19 01:36:10;;;;;;;20.00;14.07;;;12.10;99.90;;;;;;5039966;28;20419;-84
2023/10/19 01:38:15;;;;;;;20.07;15.63;;;12.10;99.90;;;;;;5057294;28;20959;-84
2023/10/19 01:40:46;;;;;;;22.73;15.80;;;12.10;99.90;;;;;;5057286;28;21001;-84
2023/10/19 01:43:20;;;;;;;23.77;14.90;;;12.10;99.90;;;;;;5057597;28;20753;-84
2023/10/19 01:45:47;;;;;;;23.00;13.87;;;12.20;99.90;;;;;;5042207;28;20441;-83
2023/10/19 01:48:13;;;;;;;18.40;14.37;;;12.20;99.90;;;;;;5009982;28;20426;-83
2023/10/19 01:50:39;;;;;;;20.37;13.30;;;12.20;99.90;;;;;;5066895;28;20416;-84
2023/10/19 01:53:15;;;;;;;17.50;13.07;;;12.20;99.90;;;;;;5046730;28;20424;-84
2023/10/19 01:55:44;;;;;;;18.80;13.83;;;12.30;99.90;;;;;;5024503;28;20455;-83
2023/10/19 01:58:10;;;;;;;15.60;13.70;;;12.30;99.90;;;;;;5057691;28;20462;-83
2023/10/19 02:00:42;;;;;;;16.10;14.30;;;12.30;99.90;;;;;;5039301;28;20467;-84
2023/10/19 02:03:08;;;;;;;18.83;14.63;;;12.40;99.90;;;;;;5024284;28;20992;-84
2023/10/19 02:05:43;;;;;;;20.30;15.73;;;12.30;99.90;;;;;;5039889;28;20419;-83
2023/10/19 02:08:08;;;;;;;19.40;15.37;;;12.30;99.90;;;;;;5057079;28;20481;-83
2023/10/19 02:10:41;;;;;;;22.60;15.40;;;12.30;99.90;;;;;;5011536;28;20800;-83
2023/10/19 02:13:08;;;;;;;22.10;16.67;;;12.30;99.90;;;;;;5003655;28;20186;-83
2023/10/19 02:15:35;;;;;;;21.73;16.53;;;12.30;99.90;;;;;;5044014;28;20412;-83
2023/10/19 02:18:04;;;;;;;21.50;15.93;;;12.30;99.90;;;;;;5057312;28;20423;-84
2023/10/19 02:20:31;;;;;;;23.30;15.73;;;12.40;99.90;;;;;;5056836;28;20498;-84
2023/10/19 02:22:57;;;;;;;17.90;14.83;;;12.30;99.90;;;;;;5023614;28;20541;-84
2023/10/19 02:25:31;;;;;;;22.50;16.13;;;12.30;99.90;;;;;;5022890;28;20416;-83
2023/10/19 02:27:56;;;;;;;23.40;15.13;;;12.20;99.90;;;;;;5040929;28;20173;-84
2023/10/19 02:30:24;;;;;;;23.67;14.00;;;12.10;99.90;;;;;;5022466;28;20939;-83
2023/10/19 02:32:50;;;;;;;19.70;14.07;;;12.10;99.90;;;;;;5007168;28;20190;-84
2023/10/19 02:35:16;;;;;;;22.23;15.97;;;12.20;99.90;;;;;;5022142;28;20434;-83
2023/10/19 02:37:41;;;;;;;18.67;15.40;;;12.20;99.90;;;;;;5002763;28;20512;-83
2023/10/19 02:40:19;;;;;;;22.13;15.30;;;12.20;99.90;;;;;;5015988;28;20281;-83
2023/10/19 02:42:50;;;;;;;21.70;15.20;;;12.20;99.90;;;;;;5000926;28;20531;-84
2023/10/19 02:45:17;;;;;;;22.17;16.57;;;12.20;99.90;;;;;;4999839;28;20422;-83
2023/10/19 02:47:46;;;;;;;17.63;13.67;;;12.20;99.90;;;;;;5015435;28;20895;-83
2023/10/19 02:50:22;;;;;;;21.30;14.37;;;12.20;99.90;;;;;;5017015;28;20496;-83
2023/10/19 02:52:48;;;;;;;16.07;12.70;;;12.20;99.90;;;;;;5015608;28;20433;-84
2023/10/19 02:55:16;;;;;;;19.37;12.80;;;12.10;99.90;;;;;;5015835;28;20501;-84
2023/10/19 02:57:46;;;;;;;15.03;12.13;;;12.10;99.90;;;;;;5015355;28;20214;-84
2023/10/19 03:00:14;;;;;;;18.17;12.37;;;12.00;99.90;;;;;;5026312;28;20475;-84
2023/10/19 03:02:40;;;;;;;14.40;11.80;;;12.00;99.90;;;;;;5035992;28;20417;-83
2023/10/19 03:05:17;;;;;;;15.10;11.80;;;11.90;99.90;;;;;;5035039;28;20424;-83
2023/10/19 03:07:46;;;;;;;14.60;11.87;;;11.90;99.90;;;;;;5036308;28;20428;-83
2023/10/19 03:10:24;;;;;;;15.70;10.80;;;12.00;99.90;;;;;;5036408;28;20420;-83
2023/10/19 03:12:51;;;;;;;14.25;10.55;;;11.90;99.90;;;;;;5020516;28;20508;-83
2023/10/19 03:15:20;;;;;;;14.60;10.63;;;11.90;99.90;;;;;;5035042;28;20182;-83
2023/10/19 03:17:46;;;;;;;13.00;10.10;;;11.90;99.90;;;;;;5018648;28;20425;-82
2023/10/19 03:20:12;;;;;;;14.37;10.40;;;11.80;99.90;;;;;;5035032;28;20460;-83
2023/10/19 03:22:38;;;;;;;16.37;9.80;;;11.70;99.90;;;;;;5023807;28;20425;-83
2023/10/19 03:27:50;;;;;;;14.93;10.00;;;11.60;99.90;;;;;;5035986;28;20193;-82
2023/10/19 03:30:19;;;;;;;14.67;11.20;;;11.60;99.90;;;;;;5018386;28;20421;-83
2023/10/19 03:32:44;;;;;;;18.23;11.97;;;11.60;99.90;;;;;;5034392;28;20182;-83
2023/10/19 03:35:15;;;;;;;15.50;11.43;;;11.60;99.90;;;;;;5034796;28;20421;-83
2023/10/19 03:37:41;;;;;;;22.83;13.70;;;11.60;99.90;;;;;;5044524;28;20229;-83
2023/10/19 03:40:10;;;;;;;15.23;13.03;;;11.60;99.90;;;;;;5021644;28;20832;-83
2023/10/19 03:42:40;;;;;;;23.00;13.83;;;11.60;99.90;;;;;;5055024;28;20420;-82
2023/10/19 03:45:13;;;;;;;17.47;12.97;;;11.60;99.90;;;;;;5037484;28;20456;-83
2023/10/19 03:47:39;;;;;;;21.10;13.50;;;11.70;99.90;;;;;;5046302;28;20421;-83
2023/10/19 03:50:13;;;;;;;19.60;13.43;;;11.60;99.90;;;;;;5019673;28;20456;-83
2023/10/19 03:52:39;;;;;;;28.20;13.50;;;11.60;99.90;;;;;;5022234;28;20428;-83
2023/10/19 03:55:11;;;;;;;18.50;13.17;;;11.70;99.90;;;;;;5020284;28;20641;-83
2023/10/19 03:57:41;;;;;;;23.27;12.00;;;11.70;99.90;;;;;;5021755;28;20514;-83
2023/10/19 04:00:11;;;;;;;19.77;13.53;;;11.70;99.90;;;;;;5019969;28;20479;-83
2023/10/19 04:02:38;;;;;;;16.43;12.93;;;11.80;99.90;;;;;;5047912;28;20891;-82
2023/10/19 04:05:04;;;;;;;19.40;12.80;;;11.80;99.90;;;;;;5037002;28;20420;-83
2023/10/19 04:07:31;;;;;;;15.80;12.40;;;11.80;99.90;;;;;;5038056;28;20436;-83
2023/10/19 04:09:59;;;;;;;18.97;12.13;;;11.80;99.90;;;;;;5024026;28;20424;-82
2023/10/19 04:12:31;;;;;;;19.97;11.73;;;11.90;99.90;;;;;;5031449;28;20768;-83
2023/10/19 04:14:57;;;;;;;12.13;10.00;;;11.90;99.90;;;;;;5027630;28;20421;-82
2023/10/19 04:17:24;;;;;;;14.80;11.17;;;11.90;99.90;;;;;;5017633;28;20786;-82
2023/10/19 04:19:51;;;;;;;15.90;10.80;;;11.90;99.90;;;;;;5017474;28;20464;-82
2023/10/19 04:22:23;;;;;;;13.30;11.90;;;11.90;99.90;;;;;;5035459;28;20467;-83
2023/10/19 04:24:53;;;;;;;13.07;9.80;;;11.90;99.90;;;;;;5018294;28;20763;-82
2023/10/19 04:27:23;;;;;;;12.20;9.60;;;12.00;99.90;;;;;;5049553;28;20782;-82
2023/10/19 04:29:49;;;;;;;12.13;10.10;;;12.00;99.90;;;;;;5021280;28;20935;-82
2023/10/19 04:32:23;;;;;;;11.70;10.23;;;12.10;99.90;;;;;;5019967;28;20429;-82
2023/10/19 04:34:48;;;;;;;16.03;10.07;;;12.10;99.90;;;;;;5017124;28;20943;-82
2023/10/19 04:37:18;;;;;;;11.40;9.80;;;12.10;99.90;;;;;;5010494;28;20521;-82
2023/10/19 04:39:44;;;;;;;13.07;10.90;;;12.10;99.90;;;;;;5054838;28;20220;-82
2023/10/19 04:42:10;;;;;;;12.10;9.20;;;12.10;99.90;;;;;;5003938;28;20424;-82
2023/10/19 04:44:35;;;;;;;13.33;9.20;;;12.20;99.90;;;;;;5036589;28;20444;-82
2023/10/19 04:47:01;;;;;;;13.20;10.13;;;12.10;99.90;;;;;;5054962;28;20181;-82
2023/10/19 04:49:28;;;;;;;10.70;8.30;;;12.10;99.90;;;;;;5020113;28;20213;-82
2023/10/19 04:51:53;;;;;;;11.57;9.63;;;12.20;99.90;;;;;;5021062;28;20205;-82
2023/10/19 04:54:19;;;;;;;10.20;7.60;;;12.10;99.90;;;;;;5037176;28;20455;-82
2023/10/19 04:56:44;;;;;;;12.17;7.80;;;12.10;99.90;;;;;;5036677;28;20182;-82
2023/10/19 04:59:10;;;;;;;12.70;9.47;;;12.20;99.90;;;;;;5020166;28;20586;-82
2023/10/19 05:01:37;;;;;;;13.03;8.47;;;12.20;99.90;;;;;;5003930;28;20189;-82
2023/10/19 05:04:03;;;;;;;11.27;7.87;;;12.20;99.90;;;;;;5054869;28;20200;-82
2023/10/19 05:06:28;;;;;;;12.17;7.83;;;12.30;99.90;;;;;;5058642;28;20777;-82
2023/10/19 05:08:54;;;;;;;11.87;8.03;;;12.20;99.90;;;;;;5041461;28;20411;-83
2023/10/19 05:11:20;;;;;;;11.10;9.00;;;12.30;99.90;;;;;;5041053;28;20235;-83
2023/10/19 05:13:45;;;;;;;13.50;9.00;;;12.30;99.90;;;;;;5024242;28;20186;-84
2023/10/19 05:16:11;;;;;;;13.33;8.57;;;12.30;99.90;;;;;;5024207;28;20192;-83
2023/10/19 05:18:37;;;;;;;15.13;8.43;;;12.30;99.90;;;;;;5040100;28;20614;-83
2023/10/19 05:21:02;;;;;;;13.40;8.50;;;12.40;99.90;;;;;;5024169;28;20599;-83
2023/10/19 05:23:28;;;;;;;12.20;8.60;;;12.40;99.90;;;;;;5023433;28;20178;-82
2023/10/19 05:26:03;;;;;;;17.63;8.57;;;12.30;99.90;;;;;;5040251;28;20633;-82
2023/10/19 05:28:29;;;;;;;11.43;7.50;;;12.40;99.90;;;;;;5040743;28;20176;-82
2023/10/19 05:30:55;;;;;;;10.60;7.83;;;12.40;99.90;;;;;;5058839;28;20427;-82
2023/10/19 05:33:20;;;;;;;11.73;8.47;;;12.40;99.90;;;;;;5039773;28;20461;-83
2023/10/19 05:35:47;;;;;;;10.17;7.60;;;12.40;99.90;;;;;;5040185;28;20186;-83
2023/10/19 05:38:13;;;;;;;12.47;7.27;;;12.40;99.90;;;;;;5057743;28;20225;-84
2023/10/19 05:40:38;;;;;;;11.13;6.70;;;12.40;99.90;;;;;;5039942;28;20986;-84
2023/10/19 05:43:04;;;;;;;10.03;7.37;;;12.40;99.90;;;;;;5039880;28;20234;-83
2023/10/19 05:45:30;;;;;;;8.47;6.43;;;12.40;99.90;;;;;;5040327;28;20188;-83
2023/10/19 05:47:57;;;;;;;9.60;7.20;;;12.50;99.90;;;;;;5039470;28;20185;-83
2023/10/19 05:50:23;;;;;;;7.73;5.70;;;12.40;99.90;;;;;;5058188;28;20178;-83
2023/10/19 05:52:48;;;;;;;10.43;6.73;;;12.50;99.90;;;;;;5057309;28;20424;-83
2023/10/19 05:55:14;;;;;;;6.70;5.90;;;12.50;99.90;;;;;;5023979;28;20427;-84
2023/10/19 05:57:40;;;;;;;9.30;6.47;;;12.50;99.90;;;;;;5057499;28;20178;-83
2023/10/19 06:00:14;;;;;;;9.30;6.93;;;12.50;99.90;;;;;;5023212;28;20467;-83
2023/10/19 06:02:45;;;;;;;11.23;7.03;;;12.50;99.90;;;;;;5039708;28;20181;-83
2023/10/19 06:05:11;;;;;;;8.03;6.00;;;12.50;99.90;;;;;;5039877;28;20523;-83
2023/10/19 06:07:37;;;;;;;8.03;6.23;;;12.50;99.90;;;;;;5006838;28;20428;-84
2023/10/19 06:10:06;;;;;;;9.70;6.70;;;12.50;99.90;;;;;;5040017;28;20483;-83
2023/10/19 06:12:32;;;;;;;8.30;6.30;;;12.50;99.90;;;;;;5023421;28;20191;-83
2023/10/19 06:15:00;;;;;;;7.00;5.87;;;12.50;99.90;;;;;;5039208;28;20946;-82
2023/10/19 06:17:29;;;;;;;20.43;6.90;;;12.50;99.90;;;;;;5022664;28;20511;-83
2023/10/19 06:19:55;;;;;;;10.20;6.40;;;12.50;99.90;;;;;;5057449;28;20467;-83
2023/10/19 06:22:21;;;;;;;9.63;6.17;;;12.50;99.90;;;;;;5057252;28;20466;-83
2023/10/19 06:24:47;;;;;;;10.70;6.37;;;12.40;99.90;;;;;;5056883;28;20911;-83
2023/10/19 06:27:12;;;;;;;10.03;6.50;;;12.50;99.90;;;;;;5023788;28;20551;-83
2023/10/19 06:29:38;;;;;;;9.30;6.53;;;12.40;99.90;;;;;;5041460;28;20186;-83
2023/10/19 06:32:04;;;;;;;11.20;6.97;;;12.40;99.90;;;;;;5045470;28;20173;-83
2023/10/19 06:34:29;;;;;;;10.60;7.10;;;12.40;99.90;;;;;;5040635;28;20284;-83
2023/10/19 06:36:55;;;;;;;8.60;6.70;;;12.50;99.90;;;;;;5056599;28;20974;-83
2023/10/19 06:39:23;;;;;;;8.70;7.10;;;12.50;99.90;;;;;;5039372;28;20308;-83
2023/10/19 06:41:49;;;;;;;12.20;7.70;;;12.50;99.90;;;;;;5022994;28;20526;-83
2023/10/19 06:44:16;;;;;;;10.40;6.60;;;12.50;99.90;;;;;;5022476;28;20412;-84
2023/10/19 06:46:43;;;;;;;9.80;7.10;;;12.50;99.90;;;;;;5021682;28;20420;-83
2023/10/19 06:49:09;;;;;;;8.53;6.27;;;12.50;99.90;;;;;;5022392;28;20452;-83
2023/10/19 06:51:36;;;;;;;13.27;6.80;;;12.50;99.90;;;;;;5056456;28;20442;-83
2023/10/19 06:54:02;;;;;;;14.60;7.00;;;12.60;99.90;;;;;;5022791;28;20904;-84
2023/10/19 06:56:27;;;;;;;7.00;5.77;;;12.60;99.90;;;;;;5038533;28;20424;-83
2023/10/19 06:58:53;;;;;;;9.77;7.27;;;12.70;99.90;;;;;;5038424;28;20220;-83
2023/10/19 07:01:22;;;;;;;10.67;6.90;;;12.70;99.90;;;;;;5038478;28;20185;-84
2023/10/19 07:03:48;;;;;;;10.83;6.50;;;12.70;99.90;;;;;;5038140;28;20231;-83
2023/10/19 07:06:14;;;;;;;8.50;7.33;;;12.80;99.90;;;;;;5030813;28;20835;-83
2023/10/19 07:08:43;;;;;;;9.13;7.00;;;12.80;99.90;;;;;;5020622;28;20643;-84
2023/10/19 07:11:09;;;;;;;9.00;6.90;;;12.80;99.90;;;;;;5028009;28;20429;-83
2023/10/19 07:13:35;;;;;;;9.83;6.60;;;12.90;99.90;;;;;;5023849;28;20543;-83
2023/10/19 07:16:03;;;;;;;10.50;6.10;;;12.90;99.90;;;;;;5038294;28;20436;-83
2023/10/19 07:18:29;;;;;;;8.93;5.93;;;12.90;99.90;;;;;;5022366;28;20239;-83
2023/10/19 07:21:02;;;;;;;12.63;6.63;;;12.90;99.90;;;;;;5021580;28;20842;-83
2023/10/19 07:23:28;;;;;;;10.57;7.30;;;13.00;99.90;;;;;;5023984;28;20186;-83
2023/10/19 07:25:55;;;;;;;11.97;7.73;;;13.00;99.90;;;;;;5055761;28;20797;-83
2023/10/19 07:28:22;;;;;;;11.00;7.70;;;13.10;99.90;;;;;;5054628;28;20924;-83
2023/10/19 07:30:48;;;;;;;13.30;7.40;;;13.10;99.90;;;;;;5055502;28;20408;-83
2023/10/19 07:33:17;;;;;;;8.17;6.87;;;13.20;99.90;;;;;;5055877;28;20770;-83
2023/10/19 07:35:46;;;;;;;10.00;6.60;;;13.20;99.90;;;;;;5056074;28;20416;-83
2023/10/19 07:38:13;;;;;;;10.87;7.10;;;13.30;99.90;;;;;;5037429;28;20498;-83
2023/10/19 07:40:39;;;;;;;10.27;6.83;;;13.40;99.90;;;;;;5055582;28;20834;-82
2023/10/19 07:43:05;;;;;;;8.83;6.10;;;13.50;99.90;;;;;;5038113;28;20792;-83
2023/10/19 07:45:31;;;;;;;12.63;5.50;;;13.60;99.90;;;;;;5037857;28;20423;-83
2023/10/19 07:48:05;;;;;;;9.70;4.50;;;13.70;99.90;;;;;;5055604;28;20208;-83
2023/10/19 07:50:35;;;;;;;14.13;6.20;;;13.80;99.90;;;;;;5022752;28;20450;-83
2023/10/19 07:53:01;;;;;;;6.57;5.40;;;13.80;99.90;;;;;;5055271;28;20380;-83
2023/10/19 07:55:28;;;;;;;6.20;5.17;;;13.80;99.90;;;;;;5055594;28;20799;-83
2023/10/19 07:57:54;;;;;;;8.60;5.83;;;13.90;99.90;;;;;;5021600;28;20412;-83
2023/10/19 08:00:20;;;;;;;8.73;5.93;;;14.00;99.90;;;;;;5037790;28;20471;-83
2023/10/19 08:02:46;;;;;;;7.30;5.17;;;14.10;99.90;;;;;;5054827;28;20422;-83
2023/10/19 08:05:18;;;;;;;9.47;5.40;;;14.20;99.90;;;;;;5037269;28;20431;-83
2023/10/19 08:07:44;;;;;;;8.63;5.03;;;14.30;99.90;;;;;;5055308;28;20383;-82
2023/10/19 08:10:10;;;;;;;16.70;7.23;;;14.40;99.90;;;;;;5021344;28;20424;-83
2023/10/19 08:12:43;;;;;;;12.63;7.30;;;14.50;99.90;;;;;;5037603;28;20286;-83
2023/10/19 08:15:11;;;;;;;7.50;5.40;;;14.60;99.90;;;;;;5005445;28;20428;-83
2023/10/19 08:17:38;;;;;;;10.43;4.47;;;14.60;99.90;;;;;;5037302;28;20428;-83
2023/10/19 08:20:08;;;;;;;8.70;4.50;;;14.70;99.90;;;;;;5037439;28;20472;-83
2023/10/19 08:22:34;;;;;;;7.50;3.40;;;14.90;99.90;;;;;;5037388;28;20459;-83
2023/10/19 08:24:59;;;;;;;5.60;3.20;;;14.90;99.90;;;;;;5053510;28;20600;-83
2023/10/19 08:27:25;;;;;;;7.87;2.97;;;15.00;99.90;;;;;;5053600;28;20181;-83
2023/10/19 08:29:51;;;;;;;6.00;3.90;;;15.00;99.90;;;;;;4997784;28;20208;-82
2023/10/19 08:32:16;;;;;;;4.13;3.20;;;15.10;99.90;;;;;;5017478;28;20221;-83
2023/10/19 08:34:42;;;;;;;5.27;3.83;;;15.20;99.90;;;;;;5017763;28;20174;-82
2023/10/19 08:37:08;;;;;;;6.97;3.20;;;15.40;99.90;;;;;;5016900;28;20331;-82
2023/10/19 08:39:36;;;;;;;9.00;3.87;;;15.60;99.90;;;;;;5032878;28;20690;-83
2023/10/19 08:42:04;;;;;;;7.87;3.73;;;15.70;99.90;;;;;;5000300;28;20198;-82
2023/10/19 08:44:30;;;;;;;6.93;3.00;;;15.90;99.90;;;;;;5034184;28;20409;-83
2023/10/19 08:46:57;;;;;;;8.43;3.47;;;16.00;99.90;;;;;;5053760;28;20420;-82
2023/10/19 08:49:23;;;;;;;8.40;3.50;;;16.00;99.90;;;;;;5040192;28;20470;-83
2023/10/19 08:51:51;;;;;;;3.47;2.10;;;16.10;99.90;;;;;;5041772;28;20391;-82
2023/10/19 08:54:17;;;;;;;5.00;2.37;;;16.20;99.90;;;;;;5054927;28;20387;-82
2023/10/19 08:56:44;;;;;;;4.87;2.90;;;16.30;99.90;;;;;;5054331;28;20823;-81
2023/10/19 08:59:11;;;;;;;8.03;3.30;;;16.40;99.90;;;;;;5054860;28;20513;-82
2023/10/19 09:01:36;;;;;;;10.10;3.13;;;16.50;99.90;;;;;;5036556;28;20428;-82
2023/10/19 09:04:03;;;;;;;4.17;2.97;;;16.80;99.90;;;;;;5054451;28;20431;-82
2023/10/19 09:06:30;;;;;;;7.13;2.63;;;17.00;99.90;;;;;;4985803;28;20570;-82
2023/10/19 09:08:57;;;;;;;4.63;1.97;;;17.30;99.90;;;;;;5017463;28;20429;-82
2023/10/19 09:11:24;;;;;;;5.80;1.93;;;17.60;99.90;;;;;;5016329;28;20958;-82
2023/10/19 09:13:52;;;;;;;4.47;1.73;;;17.80;99.90;;;;;;5033702;28;20750;-82
2023/10/19 09:16:20;;;;;;;5.00;2.27;;;17.80;99.90;;;;;;5016567;28;20372;-82
2023/10/19 09:18:47;;;;;;;3.13;1.63;;;17.50;99.90;;;;;;5034040;28;20380;-81
2023/10/19 09:21:24;;;;;;;3.73;1.73;;;17.50;99.90;;;;;;5002644;28;20392;-82
2023/10/19 09:23:50;;;;;;;7.63;2.07;;;17.50;99.90;;;;;;5036948;28;20486;-81
2023/10/19 09:26:16;;;;;;;6.37;2.27;;;17.70;99.90;;;;;;5003173;28;20421;-82
2023/10/19 09:28:42;;;;;;;6.70;1.83;;;17.90;99.90;;;;;;5052701;28;20406;-82
2023/10/19 09:31:09;;;;;;;5.03;1.37;;;18.50;99.90;;;;;;5035685;28;20412;-82
2023/10/19 09:33:35;;;;;;;6.17;2.10;;;18.80;99.90;;;;;;5003286;28;20277;-82
2023/10/19 09:36:05;;;;;;;6.93;2.30;;;19.00;99.90;;;;;;5035322;28;20460;-81
2023/10/19 09:38:30;;;;;;;5.70;2.27;;;19.10;99.90;;;;;;5015886;28;20230;-82
2023/10/19 09:40:59;;;;;;;5.17;1.50;;;19.10;99.90;;;;;;4995989;28;20501;-81
2023/10/19 09:43:26;;;;;;;4.13;1.77;;;19.40;99.90;;;;;;5012722;28;20396;-82
2023/10/19 09:45:57;;;;;;;7.00;2.00;;;19.00;99.90;;;;;;5013364;28;20416;-82
2023/10/19 09:48:22;;;;;;;5.50;1.83;;;18.80;99.90;;;;;;5013787;28;20406;-82
2023/10/19 09:50:57;;;;;;;4.57;1.73;;;18.60;99.90;;;;;;5012102;28;20975;-81
2023/10/19 09:53:27;;;;;;;3.43;1.57;;;18.50;99.90;;;;;;5015948;28;20178;-82
2023/10/19 09:56:00;;;;;;;6.90;2.47;;;18.50;99.90;;;;;;5015758;28;20512;-81
2023/10/19 09:58:37;;;;;;;7.40;1.97;;;18.30;99.90;;;;;;4999887;28;20405;-81
2023/10/19 10:01:03;;;;;;;7.57;1.73;;;18.50;99.90;;;;;;5016911;28;20526;-81
2023/10/19 10:03:49;;;;;;;7.77;2.30;;;18.60;99.90;;;;;;5015760;28;20514;-82
2023/10/19 10:06:49;;;;;;;3.00;1.73;;;18.60;99.90;;;;;;5017002;28;20410;-81
2023/10/19 10:09:21;;;;;;;10.80;1.80;;;18.70;99.90;;;;;;5013989;28;20425;-81
2023/10/19 10:11:49;;;;;;;3.07;1.80;;;18.70;99.90;;;;;;5016785;28;20484;-80
2023/10/19 10:14:25;;;;;;;9.20;1.57;;;19.20;99.90;;;;;;5015723;28;20429;-81
2023/10/19 10:17:01;;;;;;;6.23;1.97;;;20.20;99.90;;;;;;5016916;28;20380;-81
2023/10/19 10:19:27;;;;;;;4.60;1.60;;;21.10;99.90;;;;;;5015381;28;20440;-81
2023/10/19 10:22:14;;;;;;;5.10;1.77;;;21.80;99.90;;;;;;5016253;28;20391;-81
2023/10/19 10:24:41;;;;;;;8.13;1.90;;;21.30;99.90;;;;;;5015255;28;20189;-81
2023/10/19 10:27:07;;;;;;;6.73;2.00;;;21.40;99.90;;;;;;5016469;28;20410;-81
2023/10/19 10:29:32;;;;;;;5.40;2.27;;;20.80;99.90;;;;;;5015551;28;20746;-81
2023/10/19 10:31:59;;;;;;;7.30;2.67;;;20.80;99.90;;;;;;5015408;28;20543;-81
2023/10/19 10:34:33;;;;;;;3.60;2.17;;;20.50;99.90;;;;;;5016404;28;20274;-81
2023/10/19 10:37:10;;;;;;;5.87;2.40;;;20.30;99.90;;;;;;5014611;28;20523;-81
2023/10/19 10:39:37;;;;;;;8.67;1.80;;;20.10;99.90;;;;;;5015411;28;20563;-81
2023/10/19 10:42:08;;;;;;;5.20;1.60;;;20.20;99.90;;;;;;5014920;28;20889;-81
2023/10/19 10:44:52;;;;;;;7.53;2.13;;;20.00;99.90;;;;;;5016185;28;20395;-81
2023/10/19 10:47:29;;;;;;;4.17;1.70;;;20.00;99.90;;;;;;5015480;28;20950;-82
2023/10/19 10:50:00;;;;;;;6.67;1.50;;;19.90;99.90;;;;;;5016095;28;20887;-80
2023/10/19 10:52:29;;;;;;;6.93;1.60;;;19.70;99.90;;;;;;5016143;28;20424;-81
2023/10/19 10:55:06;;;;;;;3.40;1.70;;;19.60;99.90;;;;;;5016281;28;20418;-81
2023/10/19 10:57:33;;;;;;;2.43;1.47;;;19.70;99.90;;;;;;5014884;28;20400;-81
2023/10/19 11:00:17;;;;;;;4.80;1.90;;;19.60;99.90;;;;;;5015643;28;20464;-81
2023/10/19 11:02:49;;;;;;;8.87;2.07;;;19.80;99.90;;;;;;5014993;28;20417;-81
2023/10/19 11:05:16;;;;;;;9.33;1.90;;;19.80;99.90;;;;;;5014735;28;20429;-81
2023/10/19 11:08:09;;;;;;;5.60;2.00;;;19.80;99.90;;;;;;5024609;28;20556;-81
2023/10/19 11:10:38;;;;;;;7.63;1.90;;;19.80;99.90;;;;;;5020209;28;20403;-81
2023/10/19 11:13:06;;;;;;;5.70;1.93;;;19.90;99.90;;;;;;5015503;28;20381;-81
2023/10/19 11:15:33;;;;;;;7.80;2.17;;;20.00;99.90;;;;;;5015508;28;20410;-81
2023/10/19 11:17:59;;;;;;;7.77;1.97;;;19.90;99.90;;;;;;5015501;28;20900;-81
2023/10/19 11:20:29;;;;;;;5.00;2.07;;;20.00;99.90;;;;;;5015525;28;20487;-80
2023/10/19 11:22:56;;;;;;;5.93;2.20;;;20.10;99.90;;;;;;5015368;28;20186;-81
2023/10/19 11:25:28;;;;;;;6.40;2.10;;;20.20;99.90;;;;;;5015404;28;20910;-81
2023/10/19 11:28:01;;;;;;;7.00;2.00;;;20.20;99.90;;;;;;5014341;28;20423;-80
2023/10/19 11:30:33;;;;;;;6.07;1.90;;;20.10;99.90;;;;;;5015528;28;20545;-80
2023/10/19 11:33:02;;;;;;;11.23;2.00;;;20.10;99.90;;;;;;5014991;28;20791;-80
2023/10/19 11:35:30;;;;;;;6.07;1.87;;;20.00;99.90;;;;;;5015366;28;20756;-80
2023/10/19 11:37:57;;;;;;;4.80;2.23;;;20.00;99.90;;;;;;5013527;28;20552;-80
2023/10/19 11:40:24;;;;;;;6.17;2.00;;;19.90;99.90;;;;;;5015133;28;20494;-81
2023/10/19 11:42:50;;;;;;;7.00;1.87;;;20.00;99.90;;;;;;5014948;28;20414;-80
2023/10/19 11:45:16;;;;;;;4.40;1.60;;;19.90;99.90;;;;;;5014647;28;20416;-80
2023/10/19 11:47:44;;;;;;;6.17;1.70;;;19.90;99.90;;;;;;5014932;28;20385;-81
2023/10/19 11:50:12;;;;;;;4.50;1.70;;;19.90;99.90;;;;;;5013595;28;20746;-81
2023/10/19 11:52:40;;;;;;;4.40;1.80;;;19.90;99.90;;;;;;4997875;28;20433;-80
2023/10/19 11:55:06;;;;;;;5.10;1.90;;;19.80;99.90;;;;;;5014496;28;20414;-80
2023/10/19 11:57:32;;;;;;;6.93;2.60;;;19.80;99.90;;;;;;5014657;28;20182;-81
2023/10/19 11:59:59;;;;;;;8.90;2.53;;;19.80;99.90;;;;;;5014451;28;20969;-80
2023/10/19 12:02:26;;;;;;;5.73;1.90;;;19.80;99.90;;;;;;5014984;28;20523;-81
2023/10/19 12:04:52;;;;;;;6.40;1.87;;;19.80;99.90;;;;;;5014596;28;20388;-80
2023/10/19 12:07:18;;;;;;;6.97;1.97;;;19.60;99.90;;;;;;5014520;28;20525;-80
2023/10/19 12:09:44;;;;;;;10.30;2.20;;;19.60;99.90;;;;;;5015356;28;20175;-81
2023/10/19 12:12:10;;;;;;;5.67;2.03;;;19.40;99.90;;;;;;5014233;28;20422;-81
2023/10/19 12:14:39;;;;;;;6.63;2.20;;;19.40;99.90;;;;;;5012937;28;20909;-80
2023/10/19 12:17:07;;;;;;;5.40;1.80;;;19.20;99.90;;;;;;5013271;28;20185;-81
2023/10/19 12:19:33;;;;;;;5.10;1.93;;;19.20;99.90;;;;;;5014360;28;20444;-81
2023/10/19 12:22:02;;;;;;;4.77;2.17;;;19.10;99.90;;;;;;5013264;28;20828;-80
2023/10/19 12:24:29;;;;;;;8.03;2.20;;;19.10;99.90;;;;;;5013222;28;20596;-81
2023/10/19 12:26:54;;;;;;;5.40;1.90;;;19.00;99.90;;;;;;5013315;28;20416;-80
2023/10/19 12:29:24;;;;;;;7.23;2.50;;;18.90;99.90;;;;;;5014021;28;20435;-81
2023/10/19 12:31:50;;;;;;;10.20;1.80;;;18.90;99.90;;;;;;5012698;28;20187;-81
2023/10/19 12:34:16;;;;;;;9.63;2.47;;;18.70;99.90;;;;;;5013008;28;20769;-81
2023/10/19 12:36:44;;;;;;;5.30;1.93;;;18.70;99.90;;;;;;5017104;28;20429;-81
2023/10/19 12:39:35;;;;;;;6.67;2.20;;;18.70;99.90;;;;;;5036362;28;20201;-80
2023/10/19 12:41:56;;;;;;;5.10;1.67;;;18.50;99.90;;;;;;5053413;28;20406;-80
2023/10/19 12:44:22;;;;;;;3.30;1.30;;;18.40;99.90;;;;;;5036042;28;20416;-80
2023/10/19 12:46:48;;;;;;;6.43;1.60;;;18.30;99.90;;;;;;5054259;28;20469;-81
2023/10/19 12:49:16;;;;;;;5.97;2.07;;;18.10;99.90;;;;;;5052730;28;20185;-81
2023/10/19 12:51:44;;;;;;;5.93;1.90;;;18.00;99.90;;;;;;5054005;28;20176;-83
2023/10/19 12:54:13;;;;;;;5.10;2.07;;;17.90;99.90;;;;;;5054288;28;20397;-82
2023/10/19 12:56:39;;;;;;;9.40;2.13;;;17.90;99.90;;;;;;5021053;28;20415;-82
2023/10/19 12:59:06;;;;;;;3.70;1.60;;;17.80;99.90;;;;;;5035878;28;20416;-81
2023/10/19 13:01:36;;;;;;;12.50;2.43;;;17.80;99.90;;;;;;5020455;28;20260;-81
2023/10/19 13:04:13;;;;;;;5.50;2.20;;;17.60;99.90;;;;;;5053628;28;20383;-81
2023/10/19 13:06:39;;;;;;;5.30;2.10;;;17.70;99.90;;;;;;5023503;28;20417;-81
2023/10/19 13:09:05;;;;;;;8.60;2.10;;;17.60;99.90;;;;;;5036392;28;20408;-81